Beaver Falls, PA

5:26 AM EDT on May 24, 2015 (GMT -0400)
Shenango Woods | | Change Station
CLOSE
Current Station
Personal Weather Station
Location: Beaver Falls, PA
Elevation: 1175 ft
Nearby Weather Stations

Elev 1175 ft 40.76 °N, 80.38 °W | Updated 2 seconds ago

Clear
Clear
42.3 °F
Feels Like 42 °F
N
0.0
Wind Variable Wind from SE
Gusts 0.0 mph

Today
High -- | Low -- °F
--% Chance of Precip.
Yesterday
High -- | Low -- °F
Precip. -- in
5:57 AM 8:40 PM
Waxing Crescent, 37% visible
Pressure 30.38 in
Visibility -9999.0 miles
Clouds Clear
Windchill 42 °F
Dew Point 38 °F
Humidity 84%
Rainfall 0.00 in
Snow Depth Not available.
UV 0.0 out of 12
Pollen 9.00 out of 12
Air Quality Not available.
Flu Activity Sporadic
METAR KUCP 240856Z AUTO 00000KT CLR 06/06 A3033 RMK AO2 55001 T00610055 SLP286 $

More Conditions Fewer Conditions

Pressure 30.38 in
Visibility -9999.0 miles
Clouds Clear
Windchill 42 °F
Dew Point 38 °F
Humidity 84%
Rainfall 0.00 in
Snow Depth Not available.
UV 0.0 out of 12
Pollen 9.00 out of 12
Air Quality Not available.
Flu Activity Sporadic
METAR KUCP 240856Z AUTO 00000KT CLR 06/06 A3033 RMK AO2 55001 T00610055 SLP286 $

More Conditions Fewer Conditions

10-Day Weather Forecast

Almanac

Astronomy

May. 24, 2015 Rise Set
Actual Time
Civil Twilight
Nautical Twilight
Astronomical Twilight
Moon
Length of Visible Light
Length of Day
Tomorrow will be .
, % of the Moon is Illuminated

Today's Extremes

State Highs State Lows

Community

WunderPhotos

Upload Photos

1,823,701 photos uploaded!

WunderBlogs® & News

Nearby

Air Quality

  Air Quality AQ Index Pollutant
Not available.

Snow Depth

Station Depth Elevation

Earthquake Activity

City Distance Mag. Time & Date
Minimum magnitude displayed is 2.5.

Coastal Water Temperatures

Place Temperature

Stations

Nearby Weather Stations

Station Location Temp. Windchill Dew Point Humidity Wind Precip. Elev Updated Type